Time;durP1;ratioP1;P1;durP2;ratioP2;P2;SDS_P1;SDS_P2;PMS_P1;PMS_P2;Temp;Humidity;BMP_temperature;BMP_pressure;BME280_temperature;BME280_humidity;BME280_pressure;Samples;Min_cycle;Max_cycle;Signal;HPM_P1;HPM_P2
2022/12/11 00:00:39;;;;;;;83.38;31.40;;;;;;;0.51;100.00;99564.13;5052002;28;20027;-79
2022/12/11 00:03:05;;;;;;;75.28;31.15;;;;;;;0.54;100.00;99568.84;5033979;28;20040;-77
2022/12/11 00:05:30;;;;;;;82.75;32.20;;;;;;;0.54;100.00;99566.84;5051651;28;20064;-77
2022/12/11 00:07:56;;;;;;;82.28;30.83;;;;;;;0.54;100.00;99564.03;5051409;28;20561;-77
2022/12/11 00:10:23;;;;;;;80.72;30.80;;;;;;;0.53;100.00;99567.28;5033657;28;20017;-77
2022/12/11 00:12:49;;;;;;;77.97;30.52;;;;;;;0.56;100.00;99570.00;5034691;28;20112;-78
2022/12/11 00:15:14;;;;;;;86.95;34.08;;;;;;;0.53;100.00;99572.88;5051577;28;20127;-78
2022/12/11 00:17:40;;;;;;;80.00;34.30;;;;;;;0.53;100.00;99578.50;5051452;28;20151;-78
2022/12/11 00:20:06;;;;;;;76.78;29.98;;;;;;;0.45;100.00;99575.13;5051649;28;20025;-78
2022/12/11 00:22:32;;;;;;;78.95;32.05;;;;;;;0.42;100.00;99566.75;5048786;28;20028;-77
2022/12/11 00:24:58;;;;;;;80.88;31.48;;;;;;;0.44;100.00;99573.53;5013667;28;20021;-78
2022/12/11 00:27:23;;;;;;;83.53;32.22;;;;;;;0.50;100.00;99579.41;5012877;28;20382;-77
2022/12/11 00:29:49;;;;;;;77.63;30.92;;;;;;;0.53;100.00;99576.50;5030949;28;20036;-78
2022/12/11 00:32:14;;;;;;;85.95;31.63;;;;;;;0.52;100.00;99574.91;5033521;28;20032;-78
2022/12/11 00:34:39;;;;;;;86.47;31.02;;;;;;;0.51;100.00;99572.56;5031076;28;20017;-77
2022/12/11 00:37:05;;;;;;;89.40;32.95;;;;;;;0.47;100.00;99577.47;5031153;28;20112;-77
2022/12/11 00:39:30;;;;;;;83.82;33.67;;;;;;;0.45;100.00;99572.31;5031543;28;20076;-77
2022/12/11 00:41:57;;;;;;;76.45;33.15;;;;;;;0.52;100.00;99582.53;5013518;28;20544;-78
2022/12/11 00:44:22;;;;;;;88.97;33.50;;;;;;;0.54;100.00;99574.47;5031366;28;20052;-77
2022/12/11 00:46:47;;;;;;;75.72;30.52;;;;;;;0.56;100.00;99574.84;5031008;28;20483;-79
2022/12/11 00:49:13;;;;;;;82.50;32.90;;;;;;;0.57;100.00;99582.00;5031442;28;20029;-77
2022/12/11 00:51:38;;;;;;;80.95;31.52;;;;;;;0.60;100.00;99575.53;5033112;28;20029;-77
2022/12/11 00:54:03;;;;;;;81.10;33.08;;;;;;;0.64;100.00;99569.78;5015913;28;20374;-78
2022/12/11 00:56:29;;;;;;;81.15;33.40;;;;;;;0.66;100.00;99570.94;5033391;28;20033;-78
2022/12/11 00:58:54;;;;;;;76.72;31.27;;;;;;;0.65;100.00;99558.13;5033148;28;20482;-77
2022/12/11 01:01:22;;;;;;;78.68;33.72;;;;;;;0.63;100.00;99554.16;5032865;28;20034;-77
2022/12/11 01:03:48;;;;;;;77.60;30.90;;;;;;;0.60;100.00;99562.25;5015545;28;20026;-79
2022/12/11 01:06:19;;;;;;;85.15;33.05;;;;;;;0.60;100.00;99565.06;5015571;28;20026;-78
2022/12/11 01:08:45;;;;;;;80.60;30.57;;;;;;;0.60;100.00;99570.69;5015382;28;20128;-77
2022/12/11 01:11:15;;;;;;;87.07;32.47;;;;;;;0.61;100.00;99569.44;5015649;28;20033;-78
2022/12/11 01:13:41;;;;;;;83.47;34.40;;;;;;;0.66;100.00;99578.59;5033385;28;20025;-76
2022/12/11 01:16:10;;;;;;;79.82;33.45;;;;;;;0.60;100.00;99572.72;5033054;28;20490;-77
2022/12/11 01:18:36;;;;;;;83.18;31.75;;;;;;;0.53;100.00;99573.69;5033291;28;20033;-77
2022/12/11 01:21:09;;;;;;;76.15;29.90;;;;;;;0.53;100.00;99584.91;5033041;28;20494;-76
2022/12/11 01:23:34;;;;;;;82.07;32.72;;;;;;;0.54;100.00;99583.69;5015571;28;20025;-78
2022/12/11 01:26:13;;;;;;;78.57;32.33;;;;;;;0.57;100.00;99591.22;5033104;28;20029;-77
2022/12/11 01:28:39;;;;;;;84.82;33.42;;;;;;;0.56;100.00;99583.25;5015311;28;20036;-77
2022/12/11 01:31:13;;;;;;;86.75;33.28;;;;;;;0.56;100.00;99586.06;5033122;28;20028;-78
2022/12/11 01:33:38;;;;;;;77.50;32.13;;;;;;;0.57;100.00;99584.81;5033235;28;20378;-76
2022/12/11 01:36:22;;;;;;;79.32;33.97;;;;;;;0.60;100.00;99595.19;5033128;28;20505;-78
2022/12/11 01:38:48;;;;;;;83.75;31.45;;;;;;;0.58;100.00;99587.19;5033016;28;20079;-78
2022/12/11 01:41:15;;;;;;;80.03;30.85;;;;;;;0.59;100.00;99591.59;5032778;28;20049;-77
2022/12/11 01:44:02;;;;;;;74.70;29.67;;;;;;;0.56;100.00;99578.44;5032795;28;20026;-78
2022/12/11 01:46:29;;;;;;;70.60;30.27;;;;;;;0.54;100.00;99591.34;5032762;28;20489;-77
2022/12/11 01:48:55;;;;;;;69.45;29.50;;;;;;;0.53;100.00;99579.31;5015120;28;20035;-77
2022/12/11 01:51:20;;;;;;;66.88;29.20;;;;;;;0.50;100.00;99583.00;5032938;28;20105;-77
2022/12/11 01:53:50;;;;;;;78.97;32.25;;;;;;;0.46;100.00;99570.28;5015205;28;20025;-77
2022/12/11 01:56:16;;;;;;;69.40;29.83;;;;;;;0.51;100.00;99570.53;5015033;28;20035;-77
2022/12/11 01:58:48;;;;;;;80.43;31.38;;;;;;;0.53;100.00;99570.88;5033465;28;20017;-77
2022/12/11 02:01:21;;;;;;;86.00;34.08;;;;;;;0.54;100.00;99561.22;5016449;28;20034;-78
2022/12/11 02:03:46;;;;;;;76.30;31.27;;;;;;;0.58;100.00;99547.06;5032944;28;20049;-77
2022/12/11 02:06:41;;;;;;;64.60;29.77;;;;;;;0.56;100.00;99546.72;5025268;28;20079;-78
2022/12/11 02:09:12;;;;;;;66.38;29.05;;;;;;;0.52;100.00;99546.00;5050751;28;20110;-77
2022/12/11 02:11:53;;;;;;;75.65;30.13;;;;;;;0.47;100.00;99541.72;5033445;28;20064;-77
2022/12/11 02:14:51;;;;;;;71.00;29.23;;;;;;;0.47;100.00;99541.72;5054390;28;20033;-78
2022/12/11 02:17:47;;;;;;;69.10;31.33;;;;;;;0.47;100.00;99529.69;5054944;28;20024;-77
2022/12/11 02:20:21;;;;;;;76.72;29.83;;;;;;;0.43;100.00;99538.22;5027075;28;20037;-76
2022/12/11 02:22:59;;;;;;;69.95;29.55;;;;;;;0.39;100.00;99525.50;5055762;28;20036;-77
2022/12/11 02:25:31;;;;;;;71.80;29.52;;;;;;;0.40;100.00;99525.06;5055452;28;20035;-78
2022/12/11 02:28:32;;;;;;;66.40;28.40;;;;;;;0.44;100.00;99524.97;5037779;28;20432;-78
2022/12/11 02:31:09;;;;;;;73.18;28.60;;;;;;;0.39;100.00;99520.69;5055763;28;20042;-77
2022/12/11 02:33:42;;;;;;;65.15;29.33;;;;;;;0.45;100.00;99529.34;5037918;28;20043;-76
2022/12/11 02:36:08;;;;;;;65.85;26.55;;;;;;;0.38;100.00;99537.97;5038277;28;20048;-76
2022/12/11 02:38:49;;;;;;;66.15;28.45;;;;;;;0.28;100.00;99531.41;5037920;28;20055;-77
2022/12/11 02:41:17;;;;;;;69.20;29.63;;;;;;;0.26;100.00;99530.28;5037624;28;20462;-77
2022/12/11 02:43:45;;;;;;;68.00;28.17;;;;;;;0.26;100.00;99528.25;5037600;28;20067;-78
2022/12/11 02:46:20;;;;;;;70.10;29.27;;;;;;;0.24;100.00;99530.72;5037330;28;20037;-77
2022/12/11 02:48:47;;;;;;;65.82;27.92;;;;;;;0.24;100.00;99535.53;5037446;28;20029;-78
2022/12/11 02:51:24;;;;;;;72.57;29.13;;;;;;;0.25;100.00;99540.72;5037309;28;20033;-78
2022/12/11 02:53:53;;;;;;;76.65;27.38;;;;;;;0.24;100.00;99539.16;5037668;28;20136;-76
2022/12/11 02:56:42;;;;;;;63.25;26.95;;;;;;;0.25;100.00;99534.31;5037512;28;20033;-77
2022/12/11 02:59:36;;;;;;;64.43;29.88;;;;;;;0.26;100.00;99541.53;5054728;28;20433;-77
2022/12/11 03:02:11;;;;;;;63.03;25.98;;;;;;;0.28;100.00;99539.84;5055365;28;20159;-77
2022/12/11 03:04:43;;;;;;;57.95;25.75;;;;;;;0.26;100.00;99541.53;5056189;28;20029;-78
2022/12/11 03:07:22;;;;;;;62.50;25.85;;;;;;;0.22;100.00;99535.22;5037076;28;20366;-77
2022/12/11 03:09:49;;;;;;;70.05;27.95;;;;;;;0.25;100.00;99539.94;5017897;28;20041;-77
2022/12/11 03:12:26;;;;;;;59.05;24.88;;;;;;;0.25;100.00;99535.09;5017552;28;20037;-78
2022/12/11 03:15:16;;;;;;;60.20;26.10;;;;;;;0.22;100.00;99538.03;5017535;28;20033;-77
2022/12/11 03:18:07;;;;;;;64.72;25.98;;;;;;;0.23;100.00;99550.81;5017307;28;20471;-78
2022/12/11 03:21:08;;;;;;;61.22;25.40;;;;;;;0.23;100.00;99548.78;5034928;28;20061;-78
2022/12/11 03:23:50;;;;;;;56.08;25.90;;;;;;;0.27;100.00;99543.09;5016520;28;20029;-77
2022/12/11 03:26:18;;;;;;;63.03;27.33;;;;;;;0.22;100.00;99544.41;5017384;28;20112;-78
2022/12/11 03:28:54;;;;;;;52.00;24.60;;;;;;;0.20;100.00;99541.25;5000764;28;20438;-78
2022/12/11 03:31:25;;;;;;;62.47;26.33;;;;;;;0.17;100.00;99550.59;5001454;28;20546;-77
2022/12/11 03:33:53;;;;;;;70.43;26.40;;;;;;;0.18;100.00;99550.13;5001119;28;20121;-77
2022/12/11 03:36:24;;;;;;;61.22;26.13;;;;;;;0.21;100.00;99550.47;5000613;28;20148;-77
2022/12/11 03:38:55;;;;;;;57.72;26.48;;;;;;;0.12;100.00;99546.25;5017325;28;20072;-78
2022/12/11 03:41:30;;;;;;;61.58;24.63;;;;;;;0.11;100.00;99546.72;4984479;28;20029;-76
2022/12/11 03:44:04;;;;;;;51.78;24.35;;;;;;;0.09;100.00;99544.34;5016841;28;20526;-78
2022/12/11 03:46:34;;;;;;;58.00;25.20;;;;;;;0.12;100.00;99537.84;5000476;28;20033;-77
2022/12/11 03:49:09;;;;;;;60.85;28.10;;;;;;;0.13;100.00;99539.41;5000859;28;20184;-76
2022/12/11 03:51:37;;;;;;;61.17;27.42;;;;;;;0.19;100.00;99548.09;5001617;28;20033;-77
2022/12/11 03:54:03;;;;;;;69.75;26.65;;;;;;;0.21;100.00;99536.44;5000356;28;20124;-76
2022/12/11 03:56:39;;;;;;;54.85;26.77;;;;;;;0.23;100.00;99539.56;5000208;28;20036;-77
2022/12/11 03:59:05;;;;;;;65.78;27.00;;;;;;;0.20;100.00;99537.66;5016761;28;20028;-78
2022/12/11 04:01:31;;;;;;;63.03;25.63;;;;;;;0.18;100.00;99526.84;5034111;28;20370;-77
2022/12/11 04:03:57;;;;;;;63.60;25.95;;;;;;;0.17;100.00;99523.25;5034492;28;20024;-78
2022/12/11 04:06:24;;;;;;;65.35;26.70;;;;;;;0.20;100.00;99518.78;5034155;28;20025;-76
2022/12/11 04:08:49;;;;;;;54.80;25.02;;;;;;;0.15;100.00;99522.13;5046204;28;20534;-77
2022/12/11 04:16:56;;;;;;;62.47;28.10;;;;;;;-0.06;100.00;99520.66;5039159;28;20044;-77
2022/12/11 04:24:14;;;;;;;64.60;28.45;;;;;;;-0.17;100.00;99514.50;5039007;28;20446;-76
2022/12/11 04:25:00;;;;;;;73.90;27.70;;;;;;;-0.22;100.00;99512.22;5039147;28;20036;-76
2022/12/11 04:30:22;;;;;;;63.35;26.88;;;;;;;-0.24;100.00;99514.72;5038605;28;20043;-77
2022/12/11 04:32:49;;;;;;;64.05;26.95;;;;;;;-0.21;100.00;99510.22;5053865;28;20016;-77
2022/12/11 04:35:16;;;;;;;76.65;28.55;;;;;;;-0.21;100.00;99516.63;5035567;28;20466;-76
2022/12/11 04:37:43;;;;;;;64.30;28.02;;;;;;;-0.20;100.00;99515.41;5035935;28;20021;-78
2022/12/11 04:40:12;;;;;;;71.70;29.05;;;;;;;-0.14;100.00;99512.88;5035759;28;20462;-78
2022/12/11 04:42:39;;;;;;;67.85;26.67;;;;;;;-0.15;100.00;99505.66;5052208;28;20088;-78
2022/12/11 04:45:07;;;;;;;58.25;25.75;;;;;;;-0.13;100.00;99506.03;5035418;28;20029;-77
2022/12/11 04:47:41;;;;;;;63.30;27.10;;;;;;;-0.14;100.00;99505.22;5053616;28;20035;-78
2022/12/11 04:50:13;;;;;;;62.05;25.80;;;;;;;-0.14;100.00;99510.84;5053982;28;20151;-75
2022/12/11 04:52:47;;;;;;;58.92;26.17;;;;;;;-0.14;100.00;99515.66;5035841;28;20394;-78
2022/12/11 04:55:14;;;;;;;58.80;25.60;;;;;;;-0.13;100.00;99503.22;5053517;28;20074;-77
2022/12/11 04:57:48;;;;;;;57.60;25.08;;;;;;;-0.12;100.00;99513.19;5053578;28;20052;-77
2022/12/11 05:00:14;;;;;;;55.65;24.85;;;;;;;-0.05;100.00;99511.00;5035556;28;20450;-76
2022/12/11 05:02:41;;;;;;;55.40;25.33;;;;;;;-0.12;100.00;99497.16;5052880;28;20494;-78
2022/12/11 05:05:08;;;;;;;56.65;24.13;;;;;;;-0.09;100.00;99496.28;5035370;28;20037;-77
2022/12/11 05:07:34;;;;;;;56.83;23.88;;;;;;;-0.12;100.00;99507.59;5053156;28;20083;-78
2022/12/11 05:10:02;;;;;;;56.55;25.98;;;;;;;-0.12;100.00;99499.16;5053075;28;20420;-76
2022/12/11 05:12:28;;;;;;;53.13;23.42;;;;;;;-0.17;100.00;99494.88;5052161;28;20124;-77
2022/12/11 05:14:54;;;;;;;67.65;26.85;;;;;;;-0.24;100.00;99491.47;5053151;28;20052;-77
2022/12/11 05:17:21;;;;;;;69.45;26.20;;;;;;;-0.34;100.00;99496.91;5053385;28;20025;-77
2022/12/11 05:19:48;;;;;;;57.72;23.95;;;;;;;-0.39;100.00;99489.00;5035379;28;20037;-76
2022/12/11 05:22:16;;;;;;;56.30;26.60;;;;;;;-0.35;100.00;99489.72;5031875;28;20029;-77
2022/12/11 05:24:49;;;;;;;50.33;24.52;;;;;;;-0.40;100.00;99483.84;5035188;28;20037;-76
2022/12/11 05:27:15;;;;;;;59.65;24.05;;;;;;;-0.36;100.00;99488.13;5035078;28;20067;-77
2022/12/11 05:29:41;;;;;;;51.35;22.90;;;;;;;-0.33;100.00;99487.25;5052897;28;20029;-76
2022/12/11 05:32:08;;;;;;;52.33;23.88;;;;;;;-0.33;100.00;99497.69;5051666;28;20048;-77
2022/12/11 05:34:33;;;;;;;45.58;23.75;;;;;;;-0.38;100.00;99489.81;5018802;28;20037;-77
2022/12/11 05:37:00;;;;;;;53.92;22.58;;;;;;;-0.40;100.00;99490.22;5051442;28;20021;-76
2022/12/11 05:39:26;;;;;;;51.80;22.70;;;;;;;-0.40;100.00;99481.03;5052841;28;20377;-76
2022/12/11 05:41:54;;;;;;;42.83;23.05;;;;;;;-0.42;100.00;99483.50;5052807;28;20428;-76
2022/12/11 05:44:19;;;;;;;50.97;22.60;;;;;;;-0.42;100.00;99486.31;5053011;28;20017;-76
2022/12/11 05:46:44;;;;;;;49.45;22.98;;;;;;;-0.39;100.00;99488.22;5053509;28;20086;-76
2022/12/11 05:49:11;;;;;;;44.08;21.02;;;;;;;-0.37;100.00;99488.56;5072035;28;20036;-76
2022/12/11 05:51:44;;;;;;;47.38;22.35;;;;;;;-0.37;100.00;99482.94;5056686;28;20029;-76
2022/12/11 05:54:12;;;;;;;43.95;22.27;;;;;;;-0.39;100.00;99479.81;5056833;28;20048;-77
2022/12/11 05:56:38;;;;;;;53.42;23.20;;;;;;;-0.39;100.00;99480.59;5038942;28;20033;-77
2022/12/11 05:59:05;;;;;;;51.88;22.27;;;;;;;-0.40;100.00;99483.84;5038612;28;20446;-78
2022/12/11 06:01:35;;;;;;;48.70;21.90;;;;;;;-0.44;100.00;99486.72;5037991;28;20071;-76
2022/12/11 06:04:03;;;;;;;44.75;21.55;;;;;;;-0.43;100.00;99487.53;5056266;28;20477;-77
2022/12/11 06:06:29;;;;;;;47.38;21.75;;;;;;;-0.46;100.00;99491.97;5038488;28;20040;-76
2022/12/11 06:08:56;;;;;;;44.58;21.13;;;;;;;-0.47;100.00;99484.78;5038347;28;20088;-76
2022/12/11 06:11:24;;;;;;;51.10;21.90;;;;;;;-0.47;100.00;99500.84;5038422;28;20032;-76
2022/12/11 06:13:51;;;;;;;48.50;23.38;;;;;;;-0.48;100.00;99504.88;5038177;28;20063;-78
2022/12/11 06:16:16;;;;;;;47.35;22.00;;;;;;;-0.48;100.00;99508.47;5052720;28;20033;-77
2022/12/11 06:18:43;;;;;;;40.92;20.02;;;;;;;-0.49;100.00;99515.31;5056694;28;20082;-77
2022/12/11 06:21:19;;;;;;;47.83;21.88;;;;;;;-0.51;100.00;99509.34;5039268;28;20474;-77
2022/12/11 06:23:47;;;;;;;45.25;19.88;;;;;;;-0.45;100.00;99518.03;5057312;28;20066;-77
2022/12/11 06:26:14;;;;;;;44.70;20.60;;;;;;;-0.43;100.00;99513.56;5039000;28;20067;-77
2022/12/11 06:28:41;;;;;;;44.50;20.70;;;;;;;-0.46;100.00;99494.78;5038681;28;20425;-77
2022/12/11 06:31:06;;;;;;;45.10;19.02;;;;;;;-0.42;100.00;99509.50;5055589;28;20421;-78
2022/12/11 06:33:34;;;;;;;43.15;20.23;;;;;;;-0.50;100.00;99526.97;5038672;28;20525;-77
2022/12/11 06:36:04;;;;;;;42.13;19.63;;;;;;;-0.52;100.00;99526.63;5038030;28;20363;-77
2022/12/11 06:38:30;;;;;;;43.47;20.02;;;;;;;-0.49;100.00;99534.94;5037936;28;20086;-77
2022/12/11 06:41:01;;;;;;;48.47;21.02;;;;;;;-0.48;100.00;99530.13;5038192;28;20033;-78
2022/12/11 06:43:27;;;;;;;40.10;17.30;;;;;;;-0.46;100.00;99522.06;5038003;28;20109;-78
2022/12/11 06:45:54;;;;;;;40.25;19.55;;;;;;;-0.45;100.00;99524.44;5037715;28;20512;-77
2022/12/11 06:48:20;;;;;;;42.03;19.23;;;;;;;-0.43;100.00;99532.41;5055612;28;20033;-78
2022/12/11 06:50:46;;;;;;;39.75;18.20;;;;;;;-0.48;100.00;99519.69;5055189;28;20091;-78
2022/12/11 06:53:13;;;;;;;35.60;17.77;;;;;;;-0.44;100.00;99531.63;5054796;28;20474;-78
2022/12/11 06:55:40;;;;;;;40.45;19.95;;;;;;;-0.44;100.00;99534.44;5038052;28;20037;-76
2022/12/11 06:58:07;;;;;;;37.53;19.40;;;;;;;-0.45;100.00;99538.47;5037135;28;20462;-77
2022/12/11 07:00:35;;;;;;;40.17;19.95;;;;;;;-0.45;100.00;99532.06;5038029;28;20025;-76
2022/12/11 07:03:00;;;;;;;38.90;18.98;;;;;;;-0.46;100.00;99534.06;5037523;28;20470;-77
2022/12/11 07:05:27;;;;;;;37.13;18.20;;;;;;;-0.47;100.00;99542.94;5055244;28;20029;-81
2022/12/11 07:07:53;;;;;;;36.88;18.45;;;;;;;-0.52;100.00;99535.81;5037162;28;20053;-76
2022/12/11 07:10:21;;;;;;;45.22;18.98;;;;;;;-0.49;100.00;99536.97;5055582;28;20051;-76
2022/12/11 07:12:46;;;;;;;38.67;19.80;;;;;;;-0.47;100.00;99545.75;5037470;28;20098;-77
2022/12/11 07:15:12;;;;;;;41.17;19.85;;;;;;;-0.43;100.00;99536.03;5037138;28;20025;-76
2022/12/11 07:17:40;;;;;;;37.63;18.55;;;;;;;-0.42;100.00;99534.00;5037374;28;20382;-76
2022/12/11 07:20:06;;;;;;;37.72;18.50;;;;;;;-0.45;100.00;99535.66;5055116;28;20028;-75
2022/12/11 07:22:32;;;;;;;38.10;19.00;;;;;;;-0.44;100.00;99533.63;5055241;28;20025;-76
2022/12/11 07:24:58;;;;;;;40.97;19.88;;;;;;;-0.41;100.00;99532.75;5054538;28;20044;-77
2022/12/11 07:27:27;;;;;;;48.00;20.85;;;;;;;-0.38;100.00;99531.91;5054956;28;20040;-78
2022/12/11 07:29:54;;;;;;;38.10;20.17;;;;;;;-0.38;100.00;99540.31;5054081;28;20025;-78
2022/12/11 07:32:20;;;;;;;42.00;19.48;;;;;;;-0.39;100.00;99542.34;5054750;28;20025;-77
2022/12/11 07:34:47;;;;;;;38.55;19.48;;;;;;;-0.42;100.00;99548.81;5053578;28;20075;-77
2022/12/11 07:37:15;;;;;;;41.35;20.75;;;;;;;-0.44;100.00;99542.84;5053471;28;20430;-77
2022/12/11 07:39:41;;;;;;;41.90;20.88;;;;;;;-0.41;100.00;99543.97;5054607;28;20025;-81
2022/12/11 07:42:08;;;;;;;35.20;17.77;;;;;;;-0.41;100.00;99541.16;5037293;28;20025;-77
2022/12/11 07:44:34;;;;;;;46.75;21.75;;;;;;;-0.44;100.00;99540.03;5054197;28;20111;-77
2022/12/11 07:47:00;;;;;;;48.63;23.75;;;;;;;-0.40;100.00;99537.94;5054603;28;20036;-78
2022/12/11 07:49:26;;;;;;;46.60;22.58;;;;;;;-0.40;100.00;99535.13;5053798;28;20032;-80
2022/12/11 07:51:52;;;;;;;37.88;17.63;;;;;;;-0.36;100.00;99535.03;5054563;28;20113;-76
2022/12/11 07:54:17;;;;;;;35.30;16.92;;;;;;;-0.40;100.00;99531.53;5054613;28;20033;-77
2022/12/11 07:56:52;;;;;;;44.97;19.88;;;;;;;-0.48;100.00;99544.16;5054946;28;20051;-78
2022/12/11 07:59:17;;;;;;;37.28;18.80;;;;;;;-0.51;100.00;99534.59;5054749;28;20025;-74
2022/12/11 08:01:45;;;;;;;39.63;19.45;;;;;;;-0.53;100.00;99537.06;5054359;28;20025;-75
2022/12/11 08:04:14;;;;;;;40.67;18.65;;;;;;;-0.54;100.00;99540.28;5054469;28;20028;-79
2022/12/11 08:06:40;;;;;;;44.65;18.98;;;;;;;-0.49;100.00;99537.75;5036830;28;20449;-78
2022/12/11 08:09:10;;;;;;;37.10;18.02;;;;;;;-0.51;100.00;99543.00;5036198;28;20045;-79
2022/12/11 08:11:37;;;;;;;40.00;17.83;;;;;;;-0.46;100.00;99542.47;5052066;28;20033;-77
2022/12/11 08:14:07;;;;;;;36.83;18.23;;;;;;;-0.49;100.00;99545.38;5036280;28;20037;-77
2022/12/11 08:16:47;;;;;;;37.83;18.63;;;;;;;-0.49;100.00;99539.78;5036927;28;20025;-80
2022/12/11 08:19:13;;;;;;;39.05;17.48;;;;;;;-0.55;100.00;99528.28;5054006;28;20029;-78
2022/12/11 08:21:40;;;;;;;41.20;19.80;;;;;;;-0.47;100.00;99528.91;5052629;28;20043;-75
2022/12/11 08:24:05;;;;;;;38.88;18.95;;;;;;;-0.43;100.00;99536.03;5054006;28;20033;-76
2022/12/11 08:26:33;;;;;;;37.15;16.95;;;;;;;-0.43;100.00;99535.22;5053513;28;20436;-76
2022/12/11 08:28:59;;;;;;;42.03;18.90;;;;;;;-0.44;100.00;99540.03;5053896;28;20025;-75
2022/12/11 08:31:26;;;;;;;43.45;18.83;;;;;;;-0.40;100.00;99539.94;5052289;28;20033;-77
2022/12/11 08:33:52;;;;;;;37.67;18.15;;;;;;;-0.45;100.00;99529.25;5051715;28;20041;-77
2022/12/11 08:36:20;;;;;;;30.70;15.50;;;;;;;-0.43;100.00;99538.81;5035100;28;20025;-78
2022/12/11 08:38:46;;;;;;;31.15;15.27;;;;;;;-0.45;100.00;99532.06;5036214;28;20025;-80
2022/12/11 08:41:14;;;;;;;39.13;16.05;;;;;;;-0.46;100.00;99534.06;5054411;28;20465;-79
2022/12/11 08:43:40;;;;;;;37.58;16.75;;;;;;;-0.42;100.00;99531.97;5054210;28;20108;-84
2022/12/11 08:46:06;;;;;;;37.10;17.10;;;;;;;-0.43;100.00;99527.59;5036515;28;20056;-84
2022/12/11 08:48:34;;;;;;;37.47;16.90;;;;;;;-0.38;100.00;99534.69;5052831;28;20033;-81
2022/12/11 08:51:03;;;;;;;34.30;16.20;;;;;;;-0.30;100.00;99533.28;5039689;28;20049;-85
2022/12/11 08:53:29;;;;;;;30.83;13.60;;;;;;;-0.23;100.00;99541.56;5070288;28;20033;-78
2022/12/11 08:56:07;;;;;;;28.73;14.70;;;;;;;-0.25;100.00;99541.19;5052609;28;20024;-80
2022/12/11 08:58:34;;;;;;;33.78;15.50;;;;;;;-0.24;100.00;99544.78;5053668;28;20031;-79
2022/12/11 09:01:13;;;;;;;33.03;15.98;;;;;;;-0.23;100.00;99540.75;5052632;28;20063;-77
2022/12/11 09:03:39;;;;;;;29.92;13.88;;;;;;;-0.21;100.00;99543.91;5053710;28;20036;-78
2022/12/11 09:06:07;;;;;;;25.67;12.15;;;;;;;-0.28;100.00;99548.47;5019068;28;20036;-85
2022/12/11 09:08:34;;;;;;;27.52;14.25;;;;;;;-0.26;100.00;99545.22;5019371;28;20072;-83
2022/12/11 09:11:09;;;;;;;28.77;14.63;;;;;;;-0.25;100.00;99549.63;5052804;28;20029;-83
2022/12/11 09:13:35;;;;;;;31.60;13.43;;;;;;;-0.31;100.00;99521.28;5035745;28;20036;-79
2022/12/11 09:16:08;;;;;;;26.27;13.82;;;;;;;-0.24;100.00;99525.16;5035498;28;20077;-78
2022/12/11 09:18:44;;;;;;;30.10;13.73;;;;;;;-0.31;100.00;99523.28;5035602;28;20466;-77
2022/12/11 09:21:12;;;;;;;30.20;13.25;;;;;;;-0.26;100.00;99526.38;5035341;28;20110;-76
2022/12/11 09:23:39;;;;;;;29.35;14.32;;;;;;;-0.28;100.00;99514.00;5055884;28;20130;-77
2022/12/11 09:26:09;;;;;;;28.85;13.90;;;;;;;-0.31;100.00;99518.47;5057579;28;20029;-77
2022/12/11 09:28:35;;;;;;;30.13;12.73;;;;;;;-0.31;100.00;99512.06;5072065;28;20040;-73
2022/12/11 09:31:08;;;;;;;30.73;12.48;;;;;;;-0.33;100.00;99515.31;5055885;28;20112;-73
2022/12/11 09:33:33;;;;;;;27.35;12.57;;;;;;;-0.33;100.00;99501.31;5055755;28;20394;-75
2022/12/11 09:35:59;;;;;;;28.23;13.88;;;;;;;-0.30;100.00;99502.44;5056129;28;20036;-76
2022/12/11 09:38:26;;;;;;;24.83;12.68;;;;;;;-0.40;100.00;99481.81;5022572;28;20060;-77
2022/12/11 09:40:52;;;;;;;29.13;13.25;;;;;;;-0.22;100.00;99497.44;5042243;28;20112;-78
2022/12/11 09:43:37;;;;;;;28.92;14.18;;;;;;;-0.17;100.00;99499.69;5031898;28;20535;-81
2022/12/11 09:46:06;;;;;;;34.67;15.75;;;;;;;-0.18;100.00;99498.13;5028698;28;20025;-76
2022/12/11 09:48:32;;;;;;;31.67;14.73;;;;;;;-0.15;100.00;99494.44;5021265;28;20033;-76
2022/12/11 09:51:04;;;;;;;31.27;15.20;;;;;;;-0.16;100.00;99488.03;5049204;28;20595;-77
2022/12/11 09:53:34;;;;;;;32.42;16.08;;;;;;;-0.22;100.00;99483.41;5020781;28;20041;-80
2022/12/11 09:56:05;;;;;;;32.72;14.77;;;;;;;-0.20;100.00;99486.53;5038739;28;20470;-80
2022/12/11 09:58:37;;;;;;;33.92;15.77;;;;;;;-0.16;100.00;99487.22;5039558;28;20040;-80
2022/12/11 10:01:12;;;;;;;29.98;14.85;;;;;;;-0.21;100.00;99476.53;5044899;28;20041;-83
2022/12/11 10:04:19;;;;;;;30.25;14.75;;;;;;;-0.16;100.00;99476.00;5049651;28;20091;-79
2022/12/11 10:07:10;;;;;;;28.85;13.48;;;;;;;-0.06;100.00;99474.94;5004771;28;20137;-74
2022/12/11 10:09:49;;;;;;;33.88;15.18;;;;;;;-0.04;100.00;99469.69;5037274;28;20132;-73
2022/12/11 10:12:43;;;;;;;35.28;16.17;;;;;;;-0.05;100.00;99474.50;5054337;28;20032;-76
2022/12/11 10:15:18;;;;;;;30.75;15.13;;;;;;;-0.05;100.00;99476.53;5056423;28;20116;-74
2022/12/11 10:17:44;;;;;;;27.02;13.90;;;;;;;-0.00;100.00;99473.19;5056102;28;20075;-74
2022/12/11 10:20:19;;;;;;;31.77;14.93;;;;;;;0.00;100.00;99462.75;5038145;28;20075;-75
2022/12/11 10:22:46;;;;;;;27.27;16.27;;;;;;;0.04;100.00;99457.81;5044083;28;20482;-75
2022/12/11 10:25:30;;;;;;;30.10;14.63;;;;;;;0.01;100.00;99461.53;5031926;28;20370;-74
2022/12/11 10:27:56;;;;;;;27.20;12.95;;;;;;;-0.04;100.00;99455.66;5046430;28;20079;-76
2022/12/11 10:30:33;;;;;;;25.90;14.13;;;;;;;-0.12;100.00;99445.81;5028115;28;20426;-76
2022/12/11 10:33:10;;;;;;;25.52;13.48;;;;;;;-0.12;100.00;99455.03;5022990;28;20029;-78
2022/12/11 10:35:45;;;;;;;25.65;13.38;;;;;;;-0.15;100.00;99455.13;5036132;28;20025;-76
2022/12/11 10:38:38;;;;;;;24.95;13.00;;;;;;;-0.23;100.00;99453.75;5036257;28;20104;-74
2022/12/11 10:41:20;;;;;;;26.05;12.90;;;;;;;-0.27;100.00;99449.00;5033735;28;20071;-76
2022/12/11 10:43:49;;;;;;;21.58;11.02;;;;;;;-0.20;100.00;99447.25;5004358;28;20379;-78
2022/12/11 10:46:21;;;;;;;24.45;12.45;;;;;;;-0.16;100.00;99450.75;5025690;28;20522;-75
2022/12/11 10:48:52;;;;;;;22.38;12.02;;;;;;;-0.09;100.00;99450.56;5054869;28;20037;-77
2022/12/11 10:51:21;;;;;;;19.15;10.43;;;;;;;-0.09;100.00;99459.00;5021404;28;20040;-75
2022/12/11 10:53:57;;;;;;;23.23;12.15;;;;;;;-0.19;100.00;99449.63;5004932;28;20044;-76
2022/12/11 10:56:27;;;;;;;19.33;10.60;;;;;;;-0.15;100.00;99441.88;5038099;28;20094;-78
2022/12/11 10:59:02;;;;;;;23.30;11.82;;;;;;;-0.09;100.00;99445.75;5037934;28;20059;-78
2022/12/11 11:01:30;;;;;;;24.08;11.75;;;;;;;-0.02;100.00;99447.56;5028882;28;20021;-74
2022/12/11 11:04:19;;;;;;;21.60;11.82;;;;;;;-0.07;100.00;99434.84;5037454;28;20044;-76
2022/12/11 11:07:01;;;;;;;26.90;11.43;;;;;;;-0.14;100.00;99437.06;5037163;28;20024;-75
2022/12/11 11:09:38;;;;;;;22.75;11.77;;;;;;;-0.12;100.00;99434.59;5020051;28;20072;-76
2022/12/11 11:12:16;;;;;;;23.92;11.32;;;;;;;-0.16;100.00;99425.47;5017465;28;20033;-75
2022/12/11 11:14:44;;;;;;;22.85;11.30;;;;;;;-0.17;100.00;99424.69;5001141;28;20044;-74
2022/12/11 11:17:16;;;;;;;23.60;11.55;;;;;;;-0.25;100.00;99420.50;5017504;28;20046;-76
2022/12/11 11:19:46;;;;;;;22.58;12.23;;;;;;;-0.24;100.00;99421.28;5012917;28;20133;-75
2022/12/11 11:22:14;;;;;;;22.15;12.18;;;;;;;-0.27;100.00;99404.09;5041333;28;20035;-75
2022/12/11 11:24:43;;;;;;;24.63;12.35;;;;;;;-0.37;100.00;99407.97;5016808;28;20033;-74
2022/12/11 11:27:33;;;;;;;20.30;11.82;;;;;;;-0.42;100.00;99405.69;4999686;28;20055;-74
2022/12/11 11:30:13;;;;;;;18.25;9.60;;;;;;;-0.47;100.00;99409.03;5042132;28;20473;-74
2022/12/11 11:32:39;;;;;;;21.88;11.50;;;;;;;-0.56;100.00;99399.66;5033408;28;20375;-76
2022/12/11 11:35:17;;;;;;;22.67;12.20;;;;;;;-0.54;100.00;99400.03;5009302;28;20140;-79
2022/12/11 11:38:08;;;;;;;23.40;11.98;;;;;;;-0.50;100.00;99409.13;5013592;28;20100;-79